sensor_id;sensor_type;location;lat;lon;timestamp;temperature;humidity
12746;DHT22;6437;53.686;10.030;2023-06-10T00:01:31;16.70;99.90
12746;DHT22;6437;53.686;10.030;2023-06-10T00:03:35;16.50;99.90
12746;DHT22;6437;53.686;10.030;2023-06-10T00:05:37;16.50;99.90
12746;DHT22;6437;53.686;10.030;2023-06-10T00:07:39;16.50;99.90
12746;DHT22;6437;53.686;10.030;2023-06-10T00:09:42;16.50;99.90
12746;DHT22;6437;53.686;10.030;2023-06-10T00:11:44;16.40;99.90
12746;DHT22;6437;53.686;10.030;2023-06-10T00:13:46;16.40;99.90
12746;DHT22;6437;53.686;10.030;2023-06-10T00:15:47;16.50;99.90
12746;DHT22;6437;53.686;10.030;2023-06-10T00:17:49;15.70;99.90
12746;DHT22;6437;53.686;10.030;2023-06-10T00:19:56;16.30;99.90
12746;DHT22;6437;53.686;10.030;2023-06-10T00:21:58;16.30;99.90
12746;DHT22;6437;53.686;10.030;2023-06-10T00:24:00;16.20;99.90
12746;DHT22;6437;53.686;10.030;2023-06-10T00:26:03;16.30;99.90
12746;DHT22;6437;53.686;10.030;2023-06-10T00:28:05;16.30;99.90
12746;DHT22;6437;53.686;10.030;2023-06-10T00:30:08;16.30;99.90
12746;DHT22;6437;53.686;10.030;2023-06-10T00:32:09;15.60;99.90
12746;DHT22;6437;53.686;10.030;2023-06-10T00:34:11;16.00;99.90
12746;DHT22;6437;53.686;10.030;2023-06-10T00:36:15;16.30;99.90
12746;DHT22;6437;53.686;10.030;2023-06-10T00:38:16;16.20;99.90
12746;DHT22;6437;53.686;10.030;2023-06-10T00:40:18;17.60;99.90
12746;DHT22;6437;53.686;10.030;2023-06-10T00:42:20;15.40;99.90
12746;DHT22;6437;53.686;10.030;2023-06-10T00:44:22;16.20;99.90
12746;DHT22;6437;53.686;10.030;2023-06-10T00:46:25;16.80;99.90
12746;DHT22;6437;53.686;10.030;2023-06-10T00:48:28;16.10;99.90
12746;DHT22;6437;53.686;10.030;2023-06-10T00:50:30;16.10;99.90
12746;DHT22;6437;53.686;10.030;2023-06-10T00:52:35;16.00;99.90
12746;DHT22;6437;53.686;10.030;2023-06-10T00:54:37;16.00;99.90
12746;DHT22;6437;53.686;10.030;2023-06-10T00:56:40;16.00;99.90
12746;DHT22;6437;53.686;10.030;2023-06-10T00:58:43;16.00;99.90
12746;DHT22;6437;53.686;10.030;2023-06-10T01:00:45;16.50;99.90
12746;DHT22;6437;53.686;10.030;2023-06-10T01:02:47;16.00;99.90
12746;DHT22;6437;53.686;10.030;2023-06-10T01:04:49;16.00;99.90
12746;DHT22;6437;53.686;10.030;2023-06-10T01:06:57;15.90;99.90
12746;DHT22;6437;53.686;10.030;2023-06-10T01:09:09;15.90;99.90
12746;DHT22;6437;53.686;10.030;2023-06-10T01:11:17;16.30;99.90
12746;DHT22;6437;53.686;10.030;2023-06-10T01:13:23;16.00;99.90
12746;DHT22;6437;53.686;10.030;2023-06-10T01:15:25;15.80;99.90
12746;DHT22;6437;53.686;10.030;2023-06-10T01:17:27;15.90;99.90
12746;DHT22;6437;53.686;10.030;2023-06-10T01:19:32;15.90;99.90
12746;DHT22;6437;53.686;10.030;2023-06-10T01:21:37;15.80;99.90
12746;DHT22;6437;53.686;10.030;2023-06-10T01:23:40;15.90;99.90
12746;DHT22;6437;53.686;10.030;2023-06-10T01:25:45;15.80;99.90
12746;DHT22;6437;53.686;10.030;2023-06-10T01:27:48;15.70;99.90
12746;DHT22;6437;53.686;10.030;2023-06-10T01:29:59;16.00;99.90
12746;DHT22;6437;53.686;10.030;2023-06-10T01:32:08;15.70;99.90
12746;DHT22;6437;53.686;10.030;2023-06-10T01:34:14;15.70;99.90
12746;DHT22;6437;53.686;10.030;2023-06-10T01:36:18;15.70;99.90
12746;DHT22;6437;53.686;10.030;2023-06-10T01:38:23;15.70;99.90
12746;DHT22;6437;53.686;10.030;2023-06-10T01:40:26;15.70;99.90
12746;DHT22;6437;53.686;10.030;2023-06-10T01:42:29;15.70;99.90
12746;DHT22;6437;53.686;10.030;2023-06-10T01:44:32;15.60;99.90
12746;DHT22;6437;53.686;10.030;2023-06-10T01:46:33;15.60;99.90
12746;DHT22;6437;53.686;10.030;2023-06-10T01:48:36;15.60;99.90
12746;DHT22;6437;53.686;10.030;2023-06-10T01:50:38;15.50;99.90
12746;DHT22;6437;53.686;10.030;2023-06-10T01:52:40;15.50;99.90
12746;DHT22;6437;53.686;10.030;2023-06-10T01:54:43;15.50;99.90
12746;DHT22;6437;53.686;10.030;2023-06-10T01:56:45;15.40;99.90
12746;DHT22;6437;53.686;10.030;2023-06-10T01:58:47;15.40;99.90
12746;DHT22;6437;53.686;10.030;2023-06-10T02:00:48;15.40;99.90
12746;DHT22;6437;53.686;10.030;2023-06-10T02:02:50;15.30;99.90
12746;DHT22;6437;53.686;10.030;2023-06-10T02:04:52;15.30;99.90
12746;DHT22;6437;53.686;10.030;2023-06-10T02:06:54;15.30;99.90
12746;DHT22;6437;53.686;10.030;2023-06-10T02:08:56;15.90;99.90
12746;DHT22;6437;53.686;10.030;2023-06-10T02:10:59;15.30;99.90
12746;DHT22;6437;53.686;10.030;2023-06-10T02:13:01;15.30;99.90
12746;DHT22;6437;53.686;10.030;2023-06-10T02:15:02;14.40;99.90
12746;DHT22;6437;53.686;10.030;2023-06-10T02:17:05;15.30;99.90
12746;DHT22;6437;53.686;10.030;2023-06-10T02:19:06;15.20;99.90
12746;DHT22;6437;53.686;10.030;2023-06-10T02:21:08;16.20;99.90
12746;DHT22;6437;53.686;10.030;2023-06-10T02:23:10;15.10;99.90
12746;DHT22;6437;53.686;10.030;2023-06-10T02:25:12;14.50;99.90
12746;DHT22;6437;53.686;10.030;2023-06-10T02:27:15;15.10;99.90
12746;DHT22;6437;53.686;10.030;2023-06-10T02:29:17;15.10;99.90
12746;DHT22;6437;53.686;10.030;2023-06-10T02:31:18;15.10;99.90
12746;DHT22;6437;53.686;10.030;2023-06-10T02:33:20;15.10;99.90
12746;DHT22;6437;53.686;10.030;2023-06-10T02:35:22;15.10;99.90
12746;DHT22;6437;53.686;10.030;2023-06-10T02:37:24;15.00;99.90
12746;DHT22;6437;53.686;10.030;2023-06-10T02:39:27;15.00;99.90
12746;DHT22;6437;53.686;10.030;2023-06-10T02:41:29;15.40;99.90
12746;DHT22;6437;53.686;10.030;2023-06-10T02:43:32;15.00;99.90
12746;DHT22;6437;53.686;10.030;2023-06-10T02:45:34;14.90;99.90
12746;DHT22;6437;53.686;10.030;2023-06-10T02:47:37;14.90;99.90
12746;DHT22;6437;53.686;10.030;2023-06-10T02:49:39;14.90;99.90
12746;DHT22;6437;53.686;10.030;2023-06-10T02:51:41;14.80;99.90
12746;DHT22;6437;53.686;10.030;2023-06-10T02:53:43;14.80;99.90
12746;DHT22;6437;53.686;10.030;2023-06-10T02:55:45;14.80;99.90
12746;DHT22;6437;53.686;10.030;2023-06-10T02:57:47;14.80;99.90
12746;DHT22;6437;53.686;10.030;2023-06-10T02:59:50;14.80;99.90
12746;DHT22;6437;53.686;10.030;2023-06-10T03:01:53;14.70;99.90
12746;DHT22;6437;53.686;10.030;2023-06-10T03:03:55;14.70;99.90
12746;DHT22;6437;53.686;10.030;2023-06-10T03:05:57;14.70;99.90
12746;DHT22;6437;53.686;10.030;2023-06-10T03:07:59;14.60;99.90
12746;DHT22;6437;53.686;10.030;2023-06-10T03:10:01;14.70;99.90
12746;DHT22;6437;53.686;10.030;2023-06-10T03:12:03;13.80;99.90
12746;DHT22;6437;53.686;10.030;2023-06-10T03:14:05;14.70;99.90
12746;DHT22;6437;53.686;10.030;2023-06-10T03:16:08;13.40;99.90
12746;DHT22;6437;53.686;10.030;2023-06-10T03:18:10;14.60;99.90
12746;DHT22;6437;53.686;10.030;2023-06-10T03:20:12;14.80;99.90
12746;DHT22;6437;53.686;10.030;2023-06-10T03:22:16;14.70;99.90
12746;DHT22;6437;53.686;10.030;2023-06-10T03:24:18;14.80;99.90
12746;DHT22;6437;53.686;10.030;2023-06-10T03:26:20;14.70;99.90
12746;DHT22;6437;53.686;10.030;2023-06-10T03:28:22;14.70;99.90
12746;DHT22;6437;53.686;10.030;2023-06-10T03:30:24;14.70;99.90
12746;DHT22;6437;53.686;10.030;2023-06-10T03:32:27;14.60;99.90
12746;DHT22;6437;53.686;10.030;2023-06-10T03:34:29;14.70;99.90
12746;DHT22;6437;53.686;10.030;2023-06-10T03:36:31;14.70;99.90
12746;DHT22;6437;53.686;10.030;2023-06-10T03:38:33;14.70;99.90
12746;DHT22;6437;53.686;10.030;2023-06-10T03:40:34;14.70;99.90
12746;DHT22;6437;53.686;10.030;2023-06-10T03:42:36;14.70;99.90
12746;DHT22;6437;53.686;10.030;2023-06-10T03:44:38;14.70;99.90
12746;DHT22;6437;53.686;10.030;2023-06-10T03:46:40;15.10;99.90
12746;DHT22;6437;53.686;10.030;2023-06-10T03:48:44;14.70;99.90
12746;DHT22;6437;53.686;10.030;2023-06-10T03:50:46;14.80;99.90
12746;DHT22;6437;53.686;10.030;2023-06-10T03:52:51;15.40;99.90
12746;DHT22;6437;53.686;10.030;2023-06-10T03:54:53;14.70;99.90
12746;DHT22;6437;53.686;10.030;2023-06-10T03:56:54;14.80;99.90
12746;DHT22;6437;53.686;10.030;2023-06-10T03:58:56;14.80;99.90
12746;DHT22;6437;53.686;10.030;2023-06-10T04:00:58;14.80;99.90
12746;DHT22;6437;53.686;10.030;2023-06-10T04:03:00;14.80;99.90
12746;DHT22;6437;53.686;10.030;2023-06-10T04:05:04;15.10;99.90
12746;DHT22;6437;53.686;10.030;2023-06-10T04:07:06;14.80;99.90
12746;DHT22;6437;53.686;10.030;2023-06-10T04:09:08;14.00;99.90
12746;DHT22;6437;53.686;10.030;2023-06-10T04:11:10;14.10;99.90
12746;DHT22;6437;53.686;10.030;2023-06-10T04:13:12;14.80;99.90
12746;DHT22;6437;53.686;10.030;2023-06-10T04:15:15;14.80;99.90
12746;DHT22;6437;53.686;10.030;2023-06-10T04:17:16;16.30;99.90
12746;DHT22;6437;53.686;10.030;2023-06-10T04:19:18;15.20;99.90
12746;DHT22;6437;53.686;10.030;2023-06-10T04:21:21;14.50;99.90
12746;DHT22;6437;53.686;10.030;2023-06-10T04:23:23;14.90;99.90
12746;DHT22;6437;53.686;10.030;2023-06-10T04:25:25;14.90;99.90
12746;DHT22;6437;53.686;10.030;2023-06-10T04:27:27;14.90;99.90
12746;DHT22;6437;53.686;10.030;2023-06-10T04:29:29;14.90;99.90
12746;DHT22;6437;53.686;10.030;2023-06-10T04:31:31;15.00;99.90
12746;DHT22;6437;53.686;10.030;2023-06-10T04:33:33;15.00;99.90
12746;DHT22;6437;53.686;10.030;2023-06-10T04:35:35;15.00;99.90
12746;DHT22;6437;53.686;10.030;2023-06-10T04:37:38;15.80;99.90
12746;DHT22;6437;53.686;10.030;2023-06-10T04:39:39;15.10;99.90
12746;DHT22;6437;53.686;10.030;2023-06-10T04:41:41;15.20;99.90
12746;DHT22;6437;53.686;10.030;2023-06-10T04:43:43;15.20;99.90
12746;DHT22;6437;53.686;10.030;2023-06-10T04:45:45;15.20;99.90
12746;DHT22;6437;53.686;10.030;2023-06-10T04:47:46;15.20;99.90
12746;DHT22;6437;53.686;10.030;2023-06-10T04:49:47;16.10;99.90
12746;DHT22;6437;53.686;10.030;2023-06-10T04:51:49;15.30;99.90
12746;DHT22;6437;53.686;10.030;2023-06-10T04:53:53;15.40;99.90
12746;DHT22;6437;53.686;10.030;2023-06-10T04:55:54;15.40;99.90
12746;DHT22;6437;53.686;10.030;2023-06-10T04:57:57;15.80;99.90
12746;DHT22;6437;53.686;10.030;2023-06-10T04:59:59;15.50;99.90
12746;DHT22;6437;53.686;10.030;2023-06-10T05:02:00;15.50;99.90
12746;DHT22;6437;53.686;10.030;2023-06-10T05:04:02;15.60;99.90
12746;DHT22;6437;53.686;10.030;2023-06-10T05:06:04;15.60;99.90
12746;DHT22;6437;53.686;10.030;2023-06-10T05:08:06;15.70;99.90
12746;DHT22;6437;53.686;10.030;2023-06-10T05:10:10;15.70;99.90
12746;DHT22;6437;53.686;10.030;2023-06-10T05:12:12;15.70;99.90
12746;DHT22;6437;53.686;10.030;2023-06-10T05:14:14;15.70;99.90
12746;DHT22;6437;53.686;10.030;2023-06-10T05:16:16;15.80;99.90
12746;DHT22;6437;53.686;10.030;2023-06-10T05:18:18;16.70;99.90
12746;DHT22;6437;53.686;10.030;2023-06-10T05:20:20;15.90;99.90
12746;DHT22;6437;53.686;10.030;2023-06-10T05:22:22;15.90;99.90
12746;DHT22;6437;53.686;10.030;2023-06-10T05:24:25;15.40;99.90
12746;DHT22;6437;53.686;10.030;2023-06-10T05:26:28;16.10;99.90
12746;DHT22;6437;53.686;10.030;2023-06-10T05:28:32;16.10;99.90
12746;DHT22;6437;53.686;10.030;2023-06-10T05:30:33;16.20;99.90
12746;DHT22;6437;53.686;10.030;2023-06-10T05:32:35;16.20;99.90
12746;DHT22;6437;53.686;10.030;2023-06-10T05:34:37;16.30;99.90
12746;DHT22;6437;53.686;10.030;2023-06-10T05:36:39;16.30;99.90
12746;DHT22;6437;53.686;10.030;2023-06-10T05:38:41;16.40;99.90
12746;DHT22;6437;53.686;10.030;2023-06-10T05:40:42;16.30;99.90
12746;DHT22;6437;53.686;10.030;2023-06-10T05:42:49;16.30;99.90
12746;DHT22;6437;53.686;10.030;2023-06-10T05:44:51;16.90;99.90
12746;DHT22;6437;53.686;10.030;2023-06-10T05:46:53;18.40;99.90
12746;DHT22;6437;53.686;10.030;2023-06-10T05:48:55;16.40;99.90
12746;DHT22;6437;53.686;10.030;2023-06-10T05:50:57;18.00;99.90
12746;DHT22;6437;53.686;10.030;2023-06-10T05:52:59;17.50;99.90
12746;DHT22;6437;53.686;10.030;2023-06-10T05:55:00;16.60;99.90
12746;DHT22;6437;53.686;10.030;2023-06-10T05:57:02;16.60;99.90
12746;DHT22;6437;53.686;10.030;2023-06-10T05:59:07;16.60;99.90
12746;DHT22;6437;53.686;10.030;2023-06-10T06:01:09;16.70;99.90
12746;DHT22;6437;53.686;10.030;2023-06-10T06:03:10;16.70;99.90
12746;DHT22;6437;53.686;10.030;2023-06-10T06:05:12;16.80;99.90
12746;DHT22;6437;53.686;10.030;2023-06-10T06:07:14;16.80;99.90
12746;DHT22;6437;53.686;10.030;2023-06-10T06:09:16;16.80;99.90
12746;DHT22;6437;53.686;10.030;2023-06-10T06:11:18;16.90;99.90
12746;DHT22;6437;53.686;10.030;2023-06-10T06:13:20;16.90;99.90
12746;DHT22;6437;53.686;10.030;2023-06-10T06:15:23;17.00;99.90
12746;DHT22;6437;53.686;10.030;2023-06-10T06:17:25;17.00;99.90
12746;DHT22;6437;53.686;10.030;2023-06-10T06:19:26;17.10;99.90
12746;DHT22;6437;53.686;10.030;2023-06-10T06:21:28;18.00;99.90
12746;DHT22;6437;53.686;10.030;2023-06-10T06:23:30;17.10;99.90
12746;DHT22;6437;53.686;10.030;2023-06-10T06:25:32;17.20;99.90
12746;DHT22;6437;53.686;10.030;2023-06-10T06:27:33;17.20;99.90
12746;DHT22;6437;53.686;10.030;2023-06-10T06:29:35;18.40;99.90
12746;DHT22;6437;53.686;10.030;2023-06-10T06:31:38;17.20;99.90
12746;DHT22;6437;53.686;10.030;2023-06-10T06:33:40;17.30;99.90
12746;DHT22;6437;53.686;10.030;2023-06-10T06:35:42;17.30;99.90
12746;DHT22;6437;53.686;10.030;2023-06-10T06:37:43;17.60;99.90
12746;DHT22;6437;53.686;10.030;2023-06-10T06:39:45;17.40;99.90
12746;DHT22;6437;53.686;10.030;2023-06-10T06:41:47;17.50;99.90
12746;DHT22;6437;53.686;10.030;2023-06-10T06:43:49;17.50;99.90
12746;DHT22;6437;53.686;10.030;2023-06-10T06:45:50;17.50;99.90
12746;DHT22;6437;53.686;10.030;2023-06-10T06:47:54;17.50;99.90
12746;DHT22;6437;53.686;10.030;2023-06-10T06:49:56;17.60;99.90
12746;DHT22;6437;53.686;10.030;2023-06-10T06:51:58;17.60;99.90
12746;DHT22;6437;53.686;10.030;2023-06-10T06:54:00;17.60;99.90
12746;DHT22;6437;53.686;10.030;2023-06-10T06:56:02;17.70;99.90
12746;DHT22;6437;53.686;10.030;2023-06-10T06:58:03;17.70;99.90
12746;DHT22;6437;53.686;10.030;2023-06-10T07:00:06;17.80;99.90
12746;DHT22;6437;53.686;10.030;2023-06-10T07:02:10;17.60;99.90
12746;DHT22;6437;53.686;10.030;2023-06-10T07:04:15;17.90;99.90
12746;DHT22;6437;53.686;10.030;2023-06-10T07:06:17;18.00;99.90
12746;DHT22;6437;53.686;10.030;2023-06-10T07:08:18;18.20;99.90
12746;DHT22;6437;53.686;10.030;2023-06-10T07:10:20;18.10;99.90
12746;DHT22;6437;53.686;10.030;2023-06-10T07:12:22;18.60;99.90
12746;DHT22;6437;53.686;10.030;2023-06-10T07:14:24;18.10;99.90
12746;DHT22;6437;53.686;10.030;2023-06-10T07:16:26;18.10;99.90
12746;DHT22;6437;53.686;10.030;2023-06-10T07:18:27;18.20;99.90
12746;DHT22;6437;53.686;10.030;2023-06-10T07:20:30;18.20;99.90
12746;DHT22;6437;53.686;10.030;2023-06-10T07:22:32;19.20;99.90
12746;DHT22;6437;53.686;10.030;2023-06-10T07:24:34;19.00;99.90
12746;DHT22;6437;53.686;10.030;2023-06-10T07:26:36;18.30;99.90
12746;DHT22;6437;53.686;10.030;2023-06-10T07:28:38;19.60;99.90
12746;DHT22;6437;53.686;10.030;2023-06-10T07:30:39;19.50;99.90
12746;DHT22;6437;53.686;10.030;2023-06-10T07:32:41;18.40;99.90
12746;DHT22;6437;53.686;10.030;2023-06-10T07:34:43;18.50;99.90
12746;DHT22;6437;53.686;10.030;2023-06-10T07:36:47;18.50;99.90
12746;DHT22;6437;53.686;10.030;2023-06-10T07:38:49;18.60;99.90
12746;DHT22;6437;53.686;10.030;2023-06-10T07:40:51;18.60;99.90
12746;DHT22;6437;53.686;10.030;2023-06-10T07:42:53;18.60;99.90
12746;DHT22;6437;53.686;10.030;2023-06-10T07:44:55;18.60;99.90
12746;DHT22;6437;53.686;10.030;2023-06-10T07:46:56;18.60;99.90
12746;DHT22;6437;53.686;10.030;2023-06-10T07:48:58;18.70;99.90
12746;DHT22;6437;53.686;10.030;2023-06-10T07:51:00;18.80;99.90
12746;DHT22;6437;53.686;10.030;2023-06-10T07:53:04;18.80;99.90
12746;DHT22;6437;53.686;10.030;2023-06-10T07:55:06;18.80;99.90
12746;DHT22;6437;53.686;10.030;2023-06-10T07:57:08;18.90;99.90
12746;DHT22;6437;53.686;10.030;2023-06-10T07:59:10;18.90;99.90
12746;DHT22;6437;53.686;10.030;2023-06-10T08:01:12;19.20;99.90
12746;DHT22;6437;53.686;10.030;2023-06-10T08:03:14;20.00;99.90
12746;DHT22;6437;53.686;10.030;2023-06-10T08:05:15;19.20;99.90
12746;DHT22;6437;53.686;10.030;2023-06-10T08:07:17;19.00;99.90
12746;DHT22;6437;53.686;10.030;2023-06-10T08:09:20;19.30;99.90
12746;DHT22;6437;53.686;10.030;2023-06-10T08:11:23;19.10;99.90
12746;DHT22;6437;53.686;10.030;2023-06-10T08:13:25;19.10;99.90
12746;DHT22;6437;53.686;10.030;2023-06-10T08:15:27;19.20;99.90
12746;DHT22;6437;53.686;10.030;2023-06-10T08:17:28;19.30;99.90
12746;DHT22;6437;53.686;10.030;2023-06-10T08:19:30;19.30;99.90
12746;DHT22;6437;53.686;10.030;2023-06-10T08:21:32;19.40;99.90
12746;DHT22;6437;53.686;10.030;2023-06-10T08:23:34;19.40;99.90
12746;DHT22;6437;53.686;10.030;2023-06-10T08:25:37;19.40;99.90
12746;DHT22;6437;53.686;10.030;2023-06-10T08:27:38;19.50;99.90
12746;DHT22;6437;53.686;10.030;2023-06-10T08:29:40;21.10;99.90
12746;DHT22;6437;53.686;10.030;2023-06-10T08:31:42;19.40;99.90
12746;DHT22;6437;53.686;10.030;2023-06-10T08:33:44;19.50;99.90
12746;DHT22;6437;53.686;10.030;2023-06-10T08:35:46;20.20;99.90
12746;DHT22;6437;53.686;10.030;2023-06-10T08:37:48;20.50;99.90
12746;DHT22;6437;53.686;10.030;2023-06-10T08:39:50;19.70;99.90
12746;DHT22;6437;53.686;10.030;2023-06-10T08:42:00;19.70;99.90
12746;DHT22;6437;53.686;10.030;2023-06-10T08:44:10;19.80;99.90
12746;DHT22;6437;53.686;10.030;2023-06-10T08:46:14;19.80;99.90
12746;DHT22;6437;53.686;10.030;2023-06-10T08:48:17;19.80;99.90
12746;DHT22;6437;53.686;10.030;2023-06-10T08:50:21;19.70;99.90
12746;DHT22;6437;53.686;10.030;2023-06-10T08:52:24;20.90;99.90
12746;DHT22;6437;53.686;10.030;2023-06-10T08:54:32;19.90;99.90
12746;DHT22;6437;53.686;10.030;2023-06-10T08:56:37;20.00;99.90
12746;DHT22;6437;53.686;10.030;2023-06-10T08:58:41;20.10;99.90
12746;DHT22;6437;53.686;10.030;2023-06-10T09:00:43;20.10;99.90
12746;DHT22;6437;53.686;10.030;2023-06-10T09:02:45;20.10;99.90
12746;DHT22;6437;53.686;10.030;2023-06-10T09:04:49;20.10;99.90
12746;DHT22;6437;53.686;10.030;2023-06-10T09:06:51;20.10;99.90
12746;DHT22;6437;53.686;10.030;2023-06-10T09:08:54;20.20;99.90
12746;DHT22;6437;53.686;10.030;2023-06-10T09:10:57;21.00;99.90
12746;DHT22;6437;53.686;10.030;2023-06-10T09:12:59;20.30;99.90
12746;DHT22;6437;53.686;10.030;2023-06-10T09:15:02;20.30;99.90
12746;DHT22;6437;53.686;10.030;2023-06-10T09:17:05;20.40;99.90
12746;DHT22;6437;53.686;10.030;2023-06-10T09:19:07;20.30;99.90
12746;DHT22;6437;53.686;10.030;2023-06-10T09:21:09;20.40;99.90
12746;DHT22;6437;53.686;10.030;2023-06-10T09:23:11;20.40;99.90
12746;DHT22;6437;53.686;10.030;2023-06-10T09:25:13;20.20;99.90
12746;DHT22;6437;53.686;10.030;2023-06-10T09:27:16;20.90;99.90
12746;DHT22;6437;53.686;10.030;2023-06-10T09:29:17;20.60;99.90
12746;DHT22;6437;53.686;10.030;2023-06-10T09:31:20;20.60;99.90
12746;DHT22;6437;53.686;10.030;2023-06-10T09:33:25;20.70;99.90
12746;DHT22;6437;53.686;10.030;2023-06-10T09:35:30;20.70;99.90
12746;DHT22;6437;53.686;10.030;2023-06-10T09:37:32;20.80;99.90
12746;DHT22;6437;53.686;10.030;2023-06-10T09:39:33;20.80;99.90
12746;DHT22;6437;53.686;10.030;2023-06-10T09:41:36;20.80;99.90
12746;DHT22;6437;53.686;10.030;2023-06-10T09:43:41;21.70;99.90
12746;DHT22;6437;53.686;10.030;2023-06-10T09:45:44;22.10;99.90
12746;DHT22;6437;53.686;10.030;2023-06-10T09:47:52;20.90;99.90
12746;DHT22;6437;53.686;10.030;2023-06-10T09:49:54;21.00;99.90
12746;DHT22;6437;53.686;10.030;2023-06-10T09:51:56;21.00;99.90
12746;DHT22;6437;53.686;10.030;2023-06-10T09:53:59;21.00;99.90
12746;DHT22;6437;53.686;10.030;2023-06-10T09:56:03;22.40;99.90
12746;DHT22;6437;53.686;10.030;2023-06-10T09:58:05;21.10;99.90
12746;DHT22;6437;53.686;10.030;2023-06-10T10:00:09;21.20;99.90
12746;DHT22;6437;53.686;10.030;2023-06-10T10:02:13;21.20;99.90
12746;DHT22;6437;53.686;10.030;2023-06-10T10:04:23;21.20;99.90
12746;DHT22;6437;53.686;10.030;2023-06-10T10:06:25;21.30;99.90
12746;DHT22;6437;53.686;10.030;2023-06-10T10:08:27;21.30;99.90
12746;DHT22;6437;53.686;10.030;2023-06-10T10:10:28;21.50;99.90
12746;DHT22;6437;53.686;10.030;2023-06-10T10:12:30;21.40;99.90
12746;DHT22;6437;53.686;10.030;2023-06-10T10:14:32;21.30;99.90
12746;DHT22;6437;53.686;10.030;2023-06-10T10:16:36;21.30;99.90
12746;DHT22;6437;53.686;10.030;2023-06-10T10:18:43;21.40;99.90
12746;DHT22;6437;53.686;10.030;2023-06-10T10:20:50;21.40;99.90
12746;DHT22;6437;53.686;10.030;2023-06-10T10:22:54;21.40;99.90
12746;DHT22;6437;53.686;10.030;2023-06-10T10:25:01;21.50;99.90
12746;DHT22;6437;53.686;10.030;2023-06-10T10:27:07;21.50;99.90
12746;DHT22;6437;53.686;10.030;2023-06-10T10:29:16;21.60;99.90
12746;DHT22;6437;53.686;10.030;2023-06-10T10:31:21;21.70;99.90
12746;DHT22;6437;53.686;10.030;2023-06-10T10:33:30;21.60;99.90
12746;DHT22;6437;53.686;10.030;2023-06-10T10:35:33;21.70;99.90
12746;DHT22;6437;53.686;10.030;2023-06-10T10:37:36;21.70;99.90
12746;DHT22;6437;53.686;10.030;2023-06-10T10:39:39;21.70;99.90
12746;DHT22;6437;53.686;10.030;2023-06-10T10:41:41;21.80;99.90
12746;DHT22;6437;53.686;10.030;2023-06-10T10:43:44;21.80;99.90
12746;DHT22;6437;53.686;10.030;2023-06-10T10:45:58;21.90;99.90
12746;DHT22;6437;53.686;10.030;2023-06-10T10:48:05;22.00;99.90
12746;DHT22;6437;53.686;10.030;2023-06-10T10:50:16;22.10;99.90
12746;DHT22;6437;53.686;10.030;2023-06-10T10:52:18;22.00;99.90
12746;DHT22;6437;53.686;10.030;2023-06-10T10:54:28;22.00;99.90
12746;DHT22;6437;53.686;10.030;2023-06-10T10:56:31;22.10;99.90
12746;DHT22;6437;53.686;10.030;2023-06-10T10:58:34;22.10;99.90
12746;DHT22;6437;53.686;10.030;2023-06-10T11:00:37;22.40;99.90
12746;DHT22;6437;53.686;10.030;2023-06-10T11:02:42;22.20;99.90
12746;DHT22;6437;53.686;10.030;2023-06-10T11:04:46;22.30;99.90
12746;DHT22;6437;53.686;10.030;2023-06-10T11:06:52;22.20;99.90
12746;DHT22;6437;53.686;10.030;2023-06-10T11:08:54;23.10;99.90
12746;DHT22;6437;53.686;10.030;2023-06-10T11:10:59;22.30;99.90
12746;DHT22;6437;53.686;10.030;2023-06-10T11:13:06;22.40;99.90
12746;DHT22;6437;53.686;10.030;2023-06-10T11:15:08;22.40;99.90
12746;DHT22;6437;53.686;10.030;2023-06-10T11:17:17;22.40;99.90
12746;DHT22;6437;53.686;10.030;2023-06-10T11:19:32;22.40;99.90
12746;DHT22;6437;53.686;10.030;2023-06-10T11:21:45;22.50;99.90
12746;DHT22;6437;53.686;10.030;2023-06-10T11:23:58;22.50;99.90
12746;DHT22;6437;53.686;10.030;2023-06-10T11:26:16;22.80;99.90
12746;DHT22;6437;53.686;10.030;2023-06-10T11:28:18;22.60;99.90
12746;DHT22;6437;53.686;10.030;2023-06-10T11:30:21;22.60;99.90
12746;DHT22;6437;53.686;10.030;2023-06-10T11:32:30;22.70;99.90
12746;DHT22;6437;53.686;10.030;2023-06-10T11:34:32;22.70;99.90
12746;DHT22;6437;53.686;10.030;2023-06-10T11:36:36;22.80;99.90
12746;DHT22;6437;53.686;10.030;2023-06-10T11:38:40;22.80;99.90
12746;DHT22;6437;53.686;10.030;2023-06-10T11:40:46;22.80;99.90
12746;DHT22;6437;53.686;10.030;2023-06-10T11:42:51;22.90;99.90
12746;DHT22;6437;53.686;10.030;2023-06-10T11:44:53;22.90;99.90
12746;DHT22;6437;53.686;10.030;2023-06-10T11:46:56;23.00;99.90
12746;DHT22;6437;53.686;10.030;2023-06-10T11:49:00;23.00;99.90
12746;DHT22;6437;53.686;10.030;2023-06-10T11:51:06;23.10;99.90
12746;DHT22;6437;53.686;10.030;2023-06-10T11:53:08;23.10;99.90
12746;DHT22;6437;53.686;10.030;2023-06-10T11:55:10;23.10;99.90
12746;DHT22;6437;53.686;10.030;2023-06-10T11:57:12;23.20;99.90
12746;DHT22;6437;53.686;10.030;2023-06-10T11:59:15;23.20;99.90
12746;DHT22;6437;53.686;10.030;2023-06-10T12:01:19;23.20;99.90
12746;DHT22;6437;53.686;10.030;2023-06-10T12:03:22;23.30;99.90
12746;DHT22;6437;53.686;10.030;2023-06-10T12:05:24;23.30;99.90
12746;DHT22;6437;53.686;10.030;2023-06-10T12:07:25;23.30;99.90
12746;DHT22;6437;53.686;10.030;2023-06-10T12:09:29;23.30;99.90
12746;DHT22;6437;53.686;10.030;2023-06-10T12:11:33;23.90;99.90
12746;DHT22;6437;53.686;10.030;2023-06-10T12:13:34;23.40;99.90
12746;DHT22;6437;53.686;10.030;2023-06-10T12:15:37;24.90;99.90
12746;DHT22;6437;53.686;10.030;2023-06-10T12:17:39;24.40;99.90
12746;DHT22;6437;53.686;10.030;2023-06-10T12:19:41;23.40;99.90
12746;DHT22;6437;53.686;10.030;2023-06-10T12:21:44;23.50;99.90
12746;DHT22;6437;53.686;10.030;2023-06-10T12:24:04;24.70;99.90
12746;DHT22;6437;53.686;10.030;2023-06-10T12:26:07;23.60;99.90
12746;DHT22;6437;53.686;10.030;2023-06-10T12:28:11;23.60;99.90
12746;DHT22;6437;53.686;10.030;2023-06-10T12:30:19;23.60;99.90
12746;DHT22;6437;53.686;10.030;2023-06-10T12:32:34;23.70;99.90
12746;DHT22;6437;53.686;10.030;2023-06-10T12:34:37;23.70;99.90
12746;DHT22;6437;53.686;10.030;2023-06-10T12:36:39;23.80;99.90
12746;DHT22;6437;53.686;10.030;2023-06-10T12:38:48;23.90;99.90
12746;DHT22;6437;53.686;10.030;2023-06-10T12:40:53;23.80;99.90
12746;DHT22;6437;53.686;10.030;2023-06-10T12:42:58;24.10;99.90
12746;DHT22;6437;53.686;10.030;2023-06-10T12:44:59;24.00;99.90
12746;DHT22;6437;53.686;10.030;2023-06-10T12:47:07;24.00;99.90
12746;DHT22;6437;53.686;10.030;2023-06-10T12:49:20;24.00;99.90
12746;DHT22;6437;53.686;10.030;2023-06-10T12:51:22;23.80;99.90
12746;DHT22;6437;53.686;10.030;2023-06-10T12:53:25;24.10;99.90
12746;DHT22;6437;53.686;10.030;2023-06-10T12:55:27;24.10;99.90
12746;DHT22;6437;53.686;10.030;2023-06-10T12:57:30;25.10;99.90